Hines, Illinois
Current Conditions -  °F | °C
As of 2:53 AM on Friday 19 Dec 2014 (Local Time) from KMDW Reporting Station
Light Snow Light Snow  
Wind Chill: 23°   Ceiling: 2200
Heat Index: 29°   Visibility: 8mi
Dew Point: 23°   Wind: 6mph
Humidity: 78%   Direction: 310°NW
Pressure: 30.28"   Gusts: NA
Location:  41.85°N, 87.84°W
Report Text: KMDW 190853Z 31005KT 8SM -SN OVC022 M02/M05 A3028 RMK AO2 SLP265 P0000 60000 T10171050 53004 $
Loading
Personal Weather Stations






























Interactive Weather Map New forecast layout! Learn more

10-Day Weather Forecast

Advertisements
Track Severe Weather on mobile